Time;durP1;ratioP1;P1;durP2;ratioP2;P2;SDS_P1;SDS_P2;PMS_P1;PMS_P2;Temp;Humidity;BMP_temperature;BMP_pressure;BME280_temperature;BME280_humidity;BME280_pressure;Samples;Min_cycle;Max_cycle;Signal;HPM_P1;HPM_P2
2022/06/25 00:01:34;;;;;;;6.00;3.42;;;;;;;20.09;90.30;97647.67;1704427;82;28067;-88
2022/06/25 00:04:00;;;;;;;5.35;3.27;;;;;;;20.17;90.88;97652.89;1704443;82;28157;-84
2022/06/25 00:06:27;;;;;;;4.75;3.40;;;;;;;20.28;91.23;97658.22;1704497;82;28103;-84
2022/06/25 00:08:54;;;;;;;9.50;3.50;;;;;;;20.24;91.35;97654.27;1704621;82;28383;-88
2022/06/25 00:14:11;;;;;;;4.33;3.10;;;;;;;20.25;92.00;97655.42;1703916;82;28137;-83
2022/06/25 00:16:45;;;;;;;4.60;3.87;;;;;;;20.34;92.32;97652.20;1704615;83;28158;-84
2022/06/25 00:19:18;;;;;;;5.28;3.50;;;;;;;20.38;92.67;97649.47;1704378;82;28164;-88
2022/06/25 00:21:44;;;;;;;7.42;4.35;;;;;;;20.39;93.13;97644.48;1706390;82;28183;-84
2022/06/25 00:24:11;;;;;;;5.50;3.65;;;;;;;20.40;93.56;97638.95;1704922;82;28013;-84
2022/06/25 00:26:38;;;;;;;4.67;3.25;;;;;;;20.25;93.80;97635.49;1704713;82;28108;-82
2022/06/25 00:29:06;;;;;;;5.47;3.08;;;;;;;20.03;94.08;97633.80;1705027;82;28523;-88
2022/06/25 00:31:32;;;;;;;4.97;3.40;;;;;;;19.86;94.50;97637.66;1704995;82;28184;-87
2022/06/25 00:33:59;;;;;;;4.60;2.92;;;;;;;19.69;94.95;97641.55;1705008;82;43027;-82
2022/06/25 00:36:25;;;;;;;5.33;2.83;;;;;;;19.57;95.37;97644.66;1704272;82;28153;-82
2022/06/25 00:38:51;;;;;;;4.67;3.15;;;;;;;19.52;95.79;97642.23;1704970;82;28048;-82
2022/06/25 00:41:23;;;;;;;5.17;3.02;;;;;;;19.59;96.18;97642.62;1703870;82;28110;-88
2022/06/25 00:43:49;;;;;;;4.53;3.25;;;;;;;19.76;96.46;97639.78;1704783;82;28120;-82
2022/06/25 00:46:16;;;;;;;4.87;3.42;;;;;;;19.91;96.88;97636.63;1704696;82;28215;-82
2022/06/25 00:48:43;;;;;;;5.28;3.62;;;;;;;20.02;97.11;97634.30;1705120;82;28102;-83
2022/06/25 00:51:14;;;;;;;6.00;3.75;;;;;;;20.13;97.44;97634.86;1704237;82;28063;-83
2022/06/25 00:53:45;;;;;;;5.15;3.80;;;;;;;20.24;97.84;97638.33;1704831;82;28054;-82
2022/06/25 00:56:13;;;;;;;5.45;3.65;;;;;;;20.18;98.06;97643.09;1705007;82;28114;-82
2022/06/25 00:58:44;;;;;;;6.00;3.22;;;;;;;20.00;98.05;97644.81;1706259;82;28109;-84
2022/06/25 01:01:15;;;;;;;6.53;3.47;;;;;;;20.10;98.48;97646.66;1705367;84;28103;-84
2022/06/25 01:03:42;;;;;;;5.72;3.62;;;;;;;20.07;98.66;97651.03;1704993;82;28080;-85
2022/06/25 01:06:09;;;;;;;3.30;3.00;;;;;;;20.17;98.97;97651.56;1704674;84;28068;-83
2022/06/25 01:08:36;;;;;;;5.87;3.50;;;;;;;20.26;99.14;97650.43;1704440;82;28159;-88
2022/06/25 01:11:03;;;;;;;4.42;3.27;;;;;;;20.15;99.10;97648.25;1704216;84;28110;-88
2022/06/25 01:13:29;;;;;;;4.78;3.90;;;;;;;20.19;99.28;97651.35;1704048;83;28067;-84
2022/06/25 01:15:56;;;;;;;8.65;3.62;;;;;;;20.29;99.70;97657.22;1706663;82;28126;-84
2022/06/25 01:18:25;;;;;;;3.60;3.30;;;;;;;20.36;99.68;97652.81;1705212;84;28214;-88
2022/06/25 01:20:52;;;;;;;6.83;3.77;;;;;;;20.36;99.58;97654.14;1702898;84;28039;-88
2022/06/25 01:23:18;;;;;;;4.90;3.70;;;;;;;20.23;99.52;97648.16;1704359;84;28196;-83
2022/06/25 01:25:45;;;;;;;4.95;3.40;;;;;;;20.09;99.52;97657.47;1703918;82;28122;-82
2022/06/25 01:28:12;;;;;;;4.35;3.08;;;;;;;20.01;99.72;97659.23;1704297;84;28020;-83
2022/06/25 01:30:38;;;;;;;4.58;3.50;;;;;;;19.93;99.91;97663.81;1705072;82;28091;-83
2022/06/25 01:33:09;;;;;;;3.42;2.90;;;;;;;19.92;100.00;97657.67;1705709;82;28110;-83
2022/06/25 01:35:37;;;;;;;4.83;3.35;;;;;;;20.06;100.00;97660.01;1704040;84;28138;-83
2022/06/25 01:38:04;;;;;;;3.87;3.47;;;;;;;20.19;100.00;97658.81;1703989;82;28128;-84
2022/06/25 01:40:32;;;;;;;4.53;3.67;;;;;;;20.23;100.00;97661.45;1704740;84;28045;-88
2022/06/25 01:42:58;;;;;;;5.45;3.62;;;;;;;20.21;100.00;97664.78;1704440;84;28165;-88
2022/06/25 01:45:29;;;;;;;7.28;4.05;;;;;;;20.16;100.00;97662.37;1702214;84;28068;-88
2022/06/25 01:47:57;;;;;;;5.15;3.92;;;;;;;20.02;100.00;97674.64;1704479;82;28192;-84
2022/06/25 01:50:25;;;;;;;5.28;3.95;;;;;;;19.99;100.00;97677.19;1704677;82;28133;-83
2022/06/25 01:52:58;;;;;;;5.08;4.12;;;;;;;20.04;100.00;97688.08;1704978;84;27992;-83
2022/06/25 01:55:24;;;;;;;4.97;4.47;;;;;;;20.03;100.00;97690.41;1703522;84;28028;-84
2022/06/25 01:57:51;;;;;;;5.37;4.08;;;;;;;20.03;100.00;97701.53;1704429;82;28165;-84
2022/06/25 02:00:23;;;;;;;6.22;3.90;;;;;;;20.06;100.00;97701.19;1702473;84;28091;-83
2022/06/25 02:02:52;;;;;;;5.80;3.50;;;;;;;19.95;100.00;97702.47;1704598;84;28091;-83
2022/06/25 02:08:08;;;;;;;4.70;3.67;;;;;;;20.08;100.00;97712.42;1709821;82;28075;-83
2022/06/25 02:10:34;;;;;;;5.15;2.92;;;;;;;20.17;100.00;97711.84;1717501;82;28164;-84
2022/06/25 02:13:00;;;;;;;4.92;3.15;;;;;;;20.19;100.00;97718.60;1716812;82;28197;-83
2022/06/25 02:15:27;;;;;;;3.50;2.83;;;;;;;20.25;100.00;97719.19;1714323;82;28098;-84
2022/06/25 02:17:54;;;;;;;7.92;3.72;;;;;;;20.23;100.00;97721.73;1717103;82;28011;-88
2022/06/25 02:20:21;;;;;;;5.25;3.02;;;;;;;20.18;100.00;97726.28;1717334;82;28117;-88
2022/06/25 02:22:48;;;;;;;4.33;3.05;;;;;;;20.16;100.00;97726.12;1717236;82;28098;-84
2022/06/25 02:25:15;;;;;;;4.22;3.15;;;;;;;20.14;100.00;97727.63;1716785;82;28090;-84
2022/06/25 02:27:43;;;;;;;3.60;2.80;;;;;;;20.16;100.00;97738.09;1718179;82;28129;-84
2022/06/25 02:30:09;;;;;;;5.45;2.65;;;;;;;20.18;100.00;97733.42;1717597;82;28066;-83
2022/06/25 02:32:35;;;;;;;3.52;2.22;;;;;;;20.08;100.00;97736.34;1716168;82;28185;-84
2022/06/25 02:35:02;;;;;;;4.12;2.77;;;;;;;20.04;100.00;97732.41;1714695;83;28107;-84
2022/06/25 02:37:28;;;;;;;4.47;3.17;;;;;;;19.93;100.00;97730.20;1717110;82;28060;-83
2022/06/25 02:39:54;;;;;;;3.75;2.70;;;;;;;19.85;100.00;97728.48;1718441;82;28027;-84
2022/06/25 02:42:23;;;;;;;4.80;3.10;;;;;;;19.79;100.00;97739.00;1717205;82;28102;-84
2022/06/25 02:44:49;;;;;;;4.40;2.72;;;;;;;19.77;100.00;97734.37;1716646;82;28166;-83
2022/06/25 02:47:15;;;;;;;3.30;3.00;;;;;;;19.79;100.00;97735.84;1718896;82;42328;-88
2022/06/25 02:49:41;;;;;;;5.75;3.02;;;;;;;19.77;100.00;97738.35;1716957;82;28180;-88
2022/06/25 02:52:07;;;;;;;3.85;2.67;;;;;;;19.69;100.00;97739.28;1717528;82;28104;-84
2022/06/25 02:54:34;;;;;;;5.25;2.70;;;;;;;19.67;100.00;97739.95;1716280;82;28194;-83
2022/06/25 02:59:43;;;;;;;2.58;2.22;;;;;;;19.56;100.00;97743.05;1641409;86;28188;-88
2022/06/25 03:02:09;;;;;;;2.42;1.90;;;;;;;19.62;100.00;97745.80;1691350;82;28076;-88
2022/06/25 03:04:45;;;;;;;2.42;1.72;;;;;;;19.76;100.00;97748.64;1716846;82;42385;-88
2022/06/25 03:07:13;;;;;;;5.53;1.67;;;;;;;19.90;99.94;97755.81;1716417;82;28009;-84
2022/06/25 03:09:39;;;;;;;5.45;1.70;;;;;;;20.04;98.73;97749.67;1706382;83;28114;-84
2022/06/25 03:12:06;;;;;;;3.98;1.70;;;;;;;20.09;97.70;97743.80;1705078;82;28209;-84
2022/06/25 03:14:35;;;;;;;4.47;2.00;;;;;;;20.25;96.92;97751.58;1705389;82;28134;-84
2022/06/25 03:17:01;;;;;;;2.37;1.60;;;;;;;20.30;96.26;97752.68;1705372;83;28036;-85
2022/06/25 03:19:28;;;;;;;1.90;1.70;;;;;;;20.38;95.67;97754.45;1704996;82;28076;-88
2022/06/25 03:21:54;;;;;;;2.37;2.17;;;;;;;20.43;95.35;97754.72;1704932;82;28118;-89
2022/06/25 03:24:23;;;;;;;2.87;1.70;;;;;;;20.43;94.78;97750.73;1705215;82;28122;-89
2022/06/25 03:26:57;;;;;;;1.60;1.47;;;;;;;20.49;94.10;97747.34;1705863;82;28095;-85
2022/06/25 03:29:23;;;;;;;1.77;1.42;;;;;;;20.51;93.42;97749.28;1701988;82;28076;-84
2022/06/25 03:31:49;;;;;;;2.65;1.30;;;;;;;20.54;92.81;97746.27;1704901;82;28082;-83
2022/06/25 03:34:16;;;;;;;2.33;1.50;;;;;;;20.59;91.99;97747.03;1704694;82;28107;-83
2022/06/25 03:36:42;;;;;;;1.87;1.40;;;;;;;20.66;91.14;97741.30;1704673;82;28095;-87
2022/06/25 03:39:08;;;;;;;2.40;1.50;;;;;;;20.74;90.47;97739.83;1704647;82;28086;-82
2022/06/25 03:41:37;;;;;;;2.60;1.70;;;;;;;20.79;89.81;97736.11;1704322;83;28020;-82
2022/06/25 03:44:09;;;;;;;5.60;3.37;;;;;;;20.84;89.07;97737.69;1703544;82;28164;-83
2022/06/25 03:46:38;;;;;;;4.53;2.10;;;;;;;20.93;88.45;97742.41;1703679;82;28113;-83
2022/06/25 03:49:07;;;;;;;17.57;9.13;;;;;;;20.99;88.02;97749.62;1705039;82;28091;-82
2022/06/25 03:51:40;;;;;;;19.07;10.18;;;;;;;21.01;87.43;97748.91;1702124;82;28074;-87
2022/06/25 03:54:08;;;;;;;18.60;9.20;;;;;;;21.06;86.83;97757.15;1704249;82;28138;-87
2022/06/25 03:56:34;;;;;;;2.77;2.22;;;;;;;21.12;86.03;97754.56;1704564;82;28075;-87
2022/06/25 03:59:00;;;;;;;5.30;2.92;;;;;;;21.16;85.34;97763.86;1704535;82;28130;-83
2022/06/25 04:01:27;;;;;;;3.20;2.00;;;;;;;21.20;85.03;97765.13;1703708;82;28084;-83
2022/06/25 04:03:54;;;;;;;3.77;2.12;;;;;;;21.21;84.62;97765.45;1705492;82;28038;-83
2022/06/25 04:06:20;;;;;;;4.80;2.10;;;;;;;21.21;83.81;97768.61;1706778;82;28147;-83
2022/06/25 04:08:46;;;;;;;4.87;2.40;;;;;;;21.27;83.45;97765.98;1704669;82;28181;-87
2022/06/25 04:11:12;;;;;;;4.10;2.58;;;;;;;21.45;83.64;97768.70;1704691;82;28054;-88
2022/06/25 04:13:40;;;;;;;3.42;2.30;;;;;;;21.70;83.82;97766.78;1704883;84;28107;-84
2022/06/25 04:16:07;;;;;;;6.00;2.85;;;;;;;21.93;83.78;97762.52;1703457;82;28103;-84
2022/06/25 04:18:36;;;;;;;6.25;2.90;;;;;;;22.18;83.48;97764.77;1704867;82;28043;-84
2022/06/25 04:21:05;;;;;;;6.72;2.85;;;;;;;22.45;83.25;97758.03;1704766;82;28097;-84
2022/06/25 04:23:31;;;;;;;5.33;3.27;;;;;;;22.73;83.14;97755.81;1705579;82;28150;-84
2022/06/25 04:25:57;;;;;;;6.72;2.80;;;;;;;22.86;82.67;97758.50;1702152;82;28122;-84
2022/06/25 04:31:08;;;;;;;4.80;2.50;;;;;;;22.84;80.98;97755.23;1704900;82;28071;-88
2022/06/25 04:33:34;;;;;;;3.35;2.17;;;;;;;22.73;80.00;97751.81;1705097;83;28178;-84
2022/06/25 04:36:08;;;;;;;2.52;2.17;;;;;;;22.71;79.61;97749.81;1704509;82;28141;-83
2022/06/25 04:38:44;;;;;;;6.53;2.50;;;;;;;22.70;79.37;97746.31;1705403;82;28098;-83
2022/06/25 04:41:11;;;;;;;4.90;2.55;;;;;;;22.70;79.04;97746.83;1705074;83;28027;-84
2022/06/25 04:43:37;;;;;;;6.75;2.47;;;;;;;22.66;78.78;97753.59;1705176;84;28106;-84
2022/06/25 04:46:03;;;;;;;6.17;2.27;;;;;;;22.65;78.67;97743.94;1705171;83;28154;-84
2022/06/25 04:48:36;;;;;;;4.40;2.17;;;;;;;22.63;78.63;97741.49;1704776;82;28126;-83
2022/06/25 04:51:03;;;;;;;4.97;2.55;;;;;;;22.52;78.41;97742.06;1704743;82;28142;-84
2022/06/25 04:53:29;;;;;;;5.60;2.33;;;;;;;22.43;78.46;97740.57;1704599;82;28098;-83
2022/06/25 04:55:55;;;;;;;5.25;2.80;;;;;;;22.41;78.68;97742.12;1704495;82;28116;-85
2022/06/25 04:58:21;;;;;;;2.95;2.30;;;;;;;22.28;78.80;97746.05;1705292;82;28193;-84
2022/06/25 05:00:49;;;;;;;2.83;2.22;;;;;;;22.06;78.89;97747.98;1704804;82;28016;-88
2022/06/25 05:03:15;;;;;;;4.42;2.42;;;;;;;21.88;79.24;97744.96;1704820;82;28177;-87
2022/06/25 05:05:41;;;;;;;6.50;2.20;;;;;;;21.73;79.72;97752.24;1704557;82;28067;-83
2022/06/25 05:08:07;;;;;;;4.42;1.72;;;;;;;21.57;80.21;97745.87;1704718;82;28090;-84
2022/06/25 05:10:34;;;;;;;3.12;2.08;;;;;;;21.55;80.85;97747.89;1704824;83;27984;-87
2022/06/25 05:13:12;;;;;;;3.52;2.02;;;;;;;21.49;81.52;97746.03;1707710;82;28151;-83
2022/06/25 05:15:41;;;;;;;3.45;2.15;;;;;;;21.41;82.13;97745.65;1705210;84;29140;-83
2022/06/25 05:18:09;;;;;;;3.58;2.00;;;;;;;21.36;82.88;97749.39;1704622;83;28182;-84
2022/06/25 05:20:43;;;;;;;3.25;1.72;;;;;;;21.31;83.64;97744.33;1705238;82;28026;-88
2022/06/25 05:23:11;;;;;;;4.20;1.98;;;;;;;21.26;84.05;97744.41;1705583;82;28086;-88
2022/06/25 05:25:38;;;;;;;3.02;1.75;;;;;;;21.28;84.55;97745.02;1705161;82;28193;-84
2022/06/25 05:28:05;;;;;;;4.22;2.20;;;;;;;21.50;85.18;97751.64;1704819;82;28158;-85
2022/06/25 05:30:32;;;;;;;6.03;2.67;;;;;;;21.74;85.62;97754.40;1705427;82;28390;-87
2022/06/25 05:32:58;;;;;;;4.80;2.90;;;;;;;21.91;86.77;97752.58;1705319;83;28130;-83
2022/06/25 05:35:26;;;;;;;4.87;2.10;;;;;;;22.04;87.59;97764.67;1704037;82;28067;-83
2022/06/25 05:37:53;;;;;;;6.20;2.37;;;;;;;22.09;87.79;97761.44;1703419;82;28109;-85
2022/06/25 05:40:19;;;;;;;3.02;1.55;;;;;;;22.11;87.84;97768.71;1704820;84;28162;-87
2022/06/25 05:42:46;;;;;;;2.55;1.80;;;;;;;22.14;87.54;97769.67;1704572;83;28194;-83
2022/06/25 05:45:13;;;;;;;1.75;1.30;;;;;;;22.11;86.79;97770.05;1704749;84;28020;-87
2022/06/25 05:47:39;;;;;;;2.35;1.82;;;;;;;22.07;86.31;97772.80;1705532;82;28123;-87
2022/06/25 05:50:07;;;;;;;2.72;1.72;;;;;;;22.08;85.67;97779.27;1705042;84;28093;-84
2022/06/25 05:52:34;;;;;;;6.70;1.80;;;;;;;22.10;85.31;97779.88;1704598;82;28054;-83
2022/06/25 05:55:00;;;;;;;2.58;1.60;;;;;;;22.08;85.54;97781.11;1705291;83;28202;-82
2022/06/25 05:57:26;;;;;;;2.10;1.57;;;;;;;22.00;86.15;97791.41;1705375;84;28165;-83
2022/06/25 05:59:53;;;;;;;2.98;1.42;;;;;;;22.03;87.03;97792.88;1705105;83;28259;-87
2022/06/25 06:02:19;;;;;;;3.08;1.30;;;;;;;22.13;86.59;97796.00;1681481;84;28102;-82
2022/06/25 06:04:45;;;;;;;2.27;1.77;;;;;;;22.31;86.79;97797.63;1706648;82;28087;-87
2022/06/25 06:07:11;;;;;;;2.33;1.55;;;;;;;22.48;87.20;97805.63;1705246;83;28091;-87
2022/06/25 06:09:38;;;;;;;5.12;2.20;;;;;;;22.62;87.57;97805.19;1711535;81;28068;-82
2022/06/25 06:12:04;;;;;;;2.58;1.87;;;;;;;22.78;87.85;97811.55;1716819;83;28237;-83
2022/06/25 06:14:31;;;;;;;2.08;1.77;;;;;;;22.85;87.89;97815.59;1720163;82;28055;-83
2022/06/25 06:16:57;;;;;;;2.92;1.52;;;;;;;22.81;88.05;97817.80;1717484;83;28106;-82
2022/06/25 06:19:24;;;;;;;2.20;1.55;;;;;;;22.78;88.63;97813.39;1718046;82;28193;-84
2022/06/25 06:21:50;;;;;;;3.70;2.10;;;;;;;22.74;88.75;97810.31;1718620;81;28121;-83
2022/06/25 06:24:16;;;;;;;2.72;1.90;;;;;;;22.75;88.68;97811.93;1718429;83;28134;-87
2022/06/25 06:26:42;;;;;;;2.30;1.92;;;;;;;22.78;88.42;97817.39;1716270;82;28020;-83
2022/06/25 06:29:08;;;;;;;;;;;;;;;22.84;88.19;97825.43;1724024;83;28083;-83
2022/06/25 06:31:34;;;;;;;;;;;;;;;23.01;88.38;97829.08;1726220;82;20268;-84
2022/06/25 06:34:00;;;;;;;;;;;;;;;23.24;89.14;97827.69;1723989;82;21023;-83
2022/06/25 06:36:27;;;;;;;;;;;;;;;23.43;89.25;97833.28;1722301;82;20822;-82
2022/06/25 06:38:54;;;;;;;;;;;;;;;23.59;88.90;97834.27;1724735;81;20244;-83
2022/06/25 06:41:20;;;;;;;;;;;;;;;23.70;88.71;97834.48;1722836;82;24887;-83
2022/06/25 06:43:46;;;;;;;;;;;;;;;23.67;88.16;97837.58;1724018;82;20802;-84
2022/06/25 06:46:13;;;;;;;2.92;1.75;;;;;;;23.62;87.38;97837.88;1721332;82;27419;-88
2022/06/25 06:48:40;;;;;;;2.55;1.52;;;;;;;23.62;86.78;97844.56;1717713;82;28450;-88
2022/06/25 06:51:07;;;;;;;1.80;1.60;;;;;;;23.71;86.76;97842.81;1716514;82;28142;-88
2022/06/25 06:53:35;;;;;;;1.77;1.55;;;;;;;23.77;86.28;97843.84;1717737;83;28510;-88
2022/06/25 06:56:01;;;;;;;2.80;2.00;;;;;;;23.76;85.72;97846.20;1717220;82;28138;-88
2022/06/25 06:58:29;;;;;;;3.30;1.80;;;;;;;23.91;85.35;97844.66;1717645;82;28162;-87
2022/06/25 07:00:56;;;;;;;1.60;1.40;;;;;;;24.00;85.35;97833.54;1719646;81;28001;-84
2022/06/25 07:03:26;;;;;;;2.27;1.35;;;;;;;24.11;85.33;97842.27;1719400;82;28003;-84
2022/06/25 07:05:52;;;;;;;1.70;1.52;;;;;;;24.07;84.84;97834.37;1718062;82;28068;-83
2022/06/25 07:08:18;;;;;;;7.37;1.80;;;;;;;23.96;84.35;97840.34;1718337;82;28033;-88
2022/06/25 07:10:44;;;;;;;3.47;1.57;;;;;;;23.92;84.59;97839.62;1707567;82;28150;-88
2022/06/25 07:13:10;;;;;;;1.72;1.32;;;;;;;24.05;85.09;97840.45;1702608;82;28063;-88
2022/06/25 07:15:36;;;;;;;2.65;1.32;;;;;;;24.07;83.94;97842.90;1704873;82;28123;-89
2022/06/25 07:18:08;;;;;;;2.17;1.35;;;;;;;23.91;82.48;97835.30;1704877;82;28181;-84
2022/06/25 07:20:40;;;;;;;3.10;1.70;;;;;;;23.75;81.50;97836.02;1706056;82;28046;-84
2022/06/25 07:23:06;;;;;;;2.45;1.40;;;;;;;23.69;82.06;97837.35;1705767;84;28104;-83
2022/06/25 07:25:33;;;;;;;2.75;1.90;;;;;;;23.60;82.33;97836.73;1704536;82;28008;-84
2022/06/25 07:28:01;;;;;;;3.85;2.50;;;;;;;23.55;82.04;97839.71;1705415;84;28083;-83
2022/06/25 07:30:28;;;;;;;2.58;1.60;;;;;;;23.51;81.84;97833.14;1704664;82;28189;-84
2022/06/25 07:32:54;;;;;;;1.75;1.60;;;;;;;23.56;82.14;97840.85;1705588;82;28102;-84
2022/06/25 07:35:20;;;;;;;2.08;1.50;;;;;;;23.50;81.84;97843.00;1705004;82;28190;-84
2022/06/25 07:37:46;;;;;;;2.37;1.60;;;;;;;23.54;81.88;97840.73;1705377;84;28111;-84
2022/06/25 07:40:13;;;;;;;2.77;1.50;;;;;;;23.52;81.74;97841.44;1704071;84;28016;-84
2022/06/25 07:42:39;;;;;;;2.30;1.72;;;;;;;23.62;81.90;97841.89;1704766;82;28182;-84
2022/06/25 07:45:06;;;;;;;2.87;1.72;;;;;;;23.76;82.20;97842.19;1705501;84;28131;-84
2022/06/25 07:47:38;;;;;;;2.52;1.82;;;;;;;24.02;82.86;97853.39;1705452;84;28082;-83
2022/06/25 07:52:53;;;;;;;3.02;1.90;;;;;;;24.09;82.63;97848.88;1702817;82;28110;-83
2022/06/25 07:55:19;;;;;;;2.50;1.92;;;;;;;24.08;82.49;97849.39;1701783;84;28098;-83
2022/06/25 07:57:46;;;;;;;2.95;1.87;;;;;;;24.28;83.06;97853.91;1704166;83;28102;-84
2022/06/25 08:00:13;;;;;;;3.15;1.95;;;;;;;24.46;83.46;97860.27;1704517;82;28182;-83
2022/06/25 08:02:42;;;;;;;3.30;2.12;;;;;;;24.71;83.74;97860.94;1705377;84;28063;-83
2022/06/25 08:05:15;;;;;;;4.90;2.30;;;;;;;24.87;83.76;97863.15;1705203;82;28142;-84
2022/06/25 08:07:41;;;;;;;2.90;2.30;;;;;;;24.89;83.50;97858.41;1705115;82;28031;-88
2022/06/25 08:10:10;;;;;;;6.65;2.50;;;;;;;24.81;82.93;97862.65;1701686;82;28118;-89
2022/06/25 08:12:36;;;;;;;2.58;1.98;;;;;;;24.82;82.78;97861.63;1704908;83;28099;-84
2022/06/25 08:15:10;;;;;;;3.00;2.37;;;;;;;24.91;82.80;97859.86;1704973;82;28576;-83
2022/06/25 08:17:38;;;;;;;2.58;1.98;;;;;;;25.10;82.73;97863.98;1685555;84;28096;-83
2022/06/25 08:20:04;;;;;;;3.33;2.02;;;;;;;25.18;82.37;97860.56;1687076;84;28040;-88
2022/06/25 08:22:30;;;;;;;3.65;2.35;;;;;;;25.31;82.14;97857.80;1687246;84;28149;-88
2022/06/25 08:24:57;;;;;;;3.15;1.82;;;;;;;25.40;82.07;97861.06;1685066;84;28341;-88
2022/06/25 08:27:24;;;;;;;2.52;1.77;;;;;;;25.31;81.60;97858.34;1708060;82;28103;-83
2022/06/25 08:29:50;;;;;;;2.87;1.90;;;;;;;25.26;81.44;97861.64;1672828;84;28165;-83
2022/06/25 08:32:18;;;;;;;3.85;1.90;;;;;;;25.12;80.64;97857.91;1703650;83;28114;-83
2022/06/25 08:34:44;;;;;;;5.15;2.00;;;;;;;25.06;80.50;97859.59;1704688;82;28156;-84
2022/06/25 08:37:10;;;;;;;3.25;1.80;;;;;;;25.04;80.41;97864.31;1704610;82;28067;-84
2022/06/25 08:39:36;;;;;;;3.12;2.35;;;;;;;25.03;79.66;97857.34;1704376;84;28074;-83
2022/06/25 08:42:03;;;;;;;3.55;1.92;;;;;;;24.91;78.91;97857.70;1701676;83;28150;-88
2022/06/25 08:44:30;;;;;;;2.70;1.90;;;;;;;24.92;78.79;97858.01;1701437;82;28170;-83
2022/06/25 08:46:58;;;;;;;3.12;2.30;;;;;;;24.94;78.51;97859.94;1703459;82;28095;-83
2022/06/25 08:49:26;;;;;;;2.15;1.85;;;;;;;25.04;78.54;97853.61;1702051;82;28099;-84
2022/06/25 08:51:53;;;;;;;3.27;2.08;;;;;;;25.16;78.41;97858.61;1702334;82;28022;-84
2022/06/25 08:54:21;;;;;;;2.33;1.80;;;;;;;25.30;78.58;97854.84;1702335;82;28182;-84
2022/06/25 08:56:47;;;;;;;2.47;1.87;;;;;;;25.45;78.59;97858.56;1705252;83;28099;-89
2022/06/25 08:59:14;;;;;;;2.90;1.65;;;;;;;25.61;78.45;97854.57;1705575;84;28170;-85
2022/06/25 09:01:40;;;;;;;2.05;1.67;;;;;;;25.68;78.09;97853.50;1705349;84;28083;-84
2022/06/25 09:04:06;;;;;;;3.40;1.87;;;;;;;25.79;77.94;97854.66;1705348;82;27996;-84
2022/06/25 09:06:32;;;;;;;4.00;2.05;;;;;;;25.88;77.79;97855.20;1705479;84;28022;-84
2022/06/25 09:09:11;;;;;;;2.00;1.80;;;;;;;25.96;77.63;97848.23;1705369;83;28075;-84
2022/06/25 09:12:04;;;;;;;3.50;1.85;;;;;;;25.94;76.88;97855.15;1704223;82;28109;-84
2022/06/25 09:14:29;;;;;;;3.42;1.70;;;;;;;25.89;75.82;97853.64;1703781;83;28106;-84
2022/06/25 09:17:04;;;;;;;3.95;1.95;;;;;;;25.89;74.40;97861.69;1704691;84;28105;-83
2022/06/25 09:19:36;;;;;;;1.70;1.60;;;;;;;25.94;73.57;97856.48;1705038;83;28173;-83
2022/06/25 09:22:05;;;;;;;3.27;1.80;;;;;;;25.92;72.02;97861.23;1704908;83;28121;-83
2022/06/25 09:24:47;;;;;;;1.87;1.60;;;;;;;25.80;70.51;97857.64;1703922;84;28153;-84
2022/06/25 09:27:15;;;;;;;3.35;1.57;;;;;;;25.78;69.58;97863.73;1704426;83;28010;-85
2022/06/25 09:29:44;;;;;;;2.95;1.90;;;;;;;25.83;69.06;97862.04;1702300;83;28035;-88
2022/06/25 09:32:13;;;;;;;2.92;1.87;;;;;;;25.88;68.45;97864.06;1706142;83;28138;-84
2022/06/25 09:34:42;;;;;;;4.17;2.00;;;;;;;25.96;68.49;97859.78;1704225;82;28121;-84
2022/06/25 09:37:26;;;;;;;2.45;2.00;;;;;;;26.11;68.74;97859.45;1704370;83;28098;-88
2022/06/25 09:39:54;;;;;;;2.30;1.55;;;;;;;26.31;69.23;97857.94;1704972;84;28026;-83
2022/06/25 09:42:26;;;;;;;3.15;2.10;;;;;;;26.54;69.38;97860.30;1702464;83;28592;-84
2022/06/25 09:45:11;;;;;;;2.90;1.50;;;;;;;26.64;68.90;97861.94;1705028;83;28165;-83
2022/06/25 09:47:40;;;;;;;1.77;1.57;;;;;;;26.68;68.09;97855.59;1704691;83;28083;-84
2022/06/25 09:50:16;;;;;;;3.12;2.42;;;;;;;26.69;67.66;97856.41;1704581;82;28209;-84
2022/06/25 09:52:55;;;;;;;2.10;1.82;;;;;;;26.63;66.79;97856.27;1704099;84;28083;-88
2022/06/25 09:55:24;;;;;;;4.00;2.33;;;;;;;26.56;65.75;97856.05;1698952;83;28091;-88
2022/06/25 09:57:51;;;;;;;2.55;2.05;;;;;;;26.61;65.20;97853.52;1704635;82;28105;-84
2022/06/25 10:00:19;;;;;;;2.50;1.90;;;;;;;26.79;65.31;97856.19;1704551;84;28153;-84
2022/06/25 10:02:48;;;;;;;2.85;2.20;;;;;;;27.01;65.37;97863.29;1705099;83;28097;-89
2022/06/25 10:05:17;;;;;;;2.75;1.90;;;;;;;27.15;64.89;97862.09;1704849;83;28198;-85
2022/06/25 10:07:59;;;;;;;3.25;1.85;;;;;;;27.29;64.46;97861.38;1704717;82;28004;-84
2022/06/25 10:10:29;;;;;;;4.30;2.20;;;;;;;27.32;63.43;97862.29;1704038;83;28114;-84
2022/06/25 10:12:56;;;;;;;3.85;2.10;;;;;;;27.20;62.29;97863.58;1698459;83;28120;-85
2022/06/25 10:15:23;;;;;;;3.75;2.30;;;;;;;27.18;61.80;97858.95;1700811;83;28028;-89
2022/06/25 10:17:51;;;;;;;2.80;2.05;;;;;;;27.18;61.22;97856.26;1699984;83;28091;-84
2022/06/25 10:20:19;;;;;;;4.72;2.10;;;;;;;27.31;61.19;97851.23;1698696;83;28068;-84
2022/06/25 10:22:49;;;;;;;4.58;2.12;;;;;;;27.43;61.14;97849.42;1699083;82;28157;-84
2022/06/25 10:25:21;;;;;;;3.13;2.00;;;;;;;27.54;60.77;97847.33;1700029;83;28054;-84
2022/06/25 10:27:50;;;;;;;2.62;1.95;;;;;;;27.64;60.41;97844.90;1699941;84;28062;-84
2022/06/25 10:30:51;;;;;;;2.98;2.00;;;;;;;27.71;59.80;97846.15;1699483;83;28169;-85
2022/06/25 10:33:23;;;;;;;2.30;1.72;;;;;;;27.69;58.90;97846.89;1700897;84;28103;-84
2022/06/25 10:35:52;;;;;;;4.97;1.90;;;;;;;27.71;58.36;97847.49;1699556;83;28079;-83
2022/06/25 10:38:23;;;;;;;2.52;1.80;;;;;;;27.62;57.46;97843.48;1701935;84;28161;-84
2022/06/25 10:40:58;;;;;;;3.30;1.90;;;;;;;27.55;56.74;97844.13;1700084;83;28080;-84
2022/06/25 10:43:54;;;;;;;3.08;2.00;;;;;;;27.48;56.10;97844.17;1700510;83;28232;-84
2022/06/25 10:46:22;;;;;;;3.02;2.83;;;;;;;27.44;55.80;97844.31;1699770;83;27988;-89
2022/06/25 10:48:57;;;;;;;3.35;2.20;;;;;;;27.48;55.47;97846.87;1692746;83;28157;-85
2022/06/25 10:51:32;;;;;;;3.17;2.15;;;;;;;27.59;55.44;97840.73;1700631;83;28091;-85
2022/06/25 10:54:01;;;;;;;4.25;2.10;;;;;;;27.76;55.80;97841.72;1698121;84;28091;-85
2022/06/25 10:56:34;;;;;;;3.52;2.40;;;;;;;27.94;56.01;97838.09;1699081;83;28169;-84
2022/06/25 10:59:00;;;;;;;2.50;2.25;;;;;;;27.99;55.82;97830.67;1699761;83;28167;-84
2022/06/25 11:01:29;;;;;;;3.80;2.27;;;;;;;28.09;56.00;97833.11;1699278;83;28035;-84
2022/06/25 11:03:58;;;;;;;3.22;2.40;;;;;;;28.28;56.04;97837.86;1700215;84;28162;-84
2022/06/25 11:06:29;;;;;;;2.58;2.30;;;;;;;28.39;55.81;97837.04;1700152;83;28020;-84
2022/06/25 11:09:05;;;;;;;2.45;2.12;;;;;;;28.49;55.67;97841.30;1699493;83;28060;-84
2022/06/25 11:11:34;;;;;;;4.70;2.40;;;;;;;28.65;55.69;97839.23;1703781;82;28204;-83
2022/06/25 11:14:02;;;;;;;3.55;2.20;;;;;;;28.72;55.29;97836.41;1705090;83;28095;-84
2022/06/25 11:16:28;;;;;;;3.90;2.00;;;;;;;28.66;54.71;97843.56;1705417;84;28095;-84
2022/06/25 11:18:59;;;;;;;3.62;1.80;;;;;;;28.59;54.21;97838.83;1703828;83;28103;-84
2022/06/25 11:21:32;;;;;;;2.70;1.62;;;;;;;28.66;53.60;97840.88;1704948;82;28121;-84
2022/06/25 11:24:10;;;;;;;3.62;1.95;;;;;;;28.79;53.24;97834.45;1705311;82;28087;-83
2022/06/25 11:29:27;;;;;;;3.58;1.80;;;;;;;29.05;52.61;97831.73;1705418;82;28118;-84
2022/06/25 11:31:54;;;;;;;3.67;1.90;;;;;;;29.27;52.66;97838.09;1705344;83;28410;-84
2022/06/25 11:34:36;;;;;;;2.55;1.60;;;;;;;29.43;52.49;97831.95;1705350;83;28098;-84
2022/06/25 11:37:09;;;;;;;2.65;1.80;;;;;;;29.57;51.82;97828.41;1705442;84;28170;-84
2022/06/25 11:39:36;;;;;;;2.35;1.70;;;;;;;29.63;51.20;97830.13;1706293;82;28072;-83
2022/06/25 11:42:07;;;;;;;2.70;1.80;;;;;;;29.61;50.88;97836.85;1704794;83;28081;-83
2022/06/25 11:44:40;;;;;;;;;;;;;;;29.74;50.78;97828.42;1709394;83;28055;-84
2022/06/25 11:47:06;;;;;;;3.87;1.70;;;;;;;29.86;50.45;97831.88;1679095;85;26121;-89
2022/06/25 11:49:37;;;;;;;1.90;1.70;;;;;;;30.00;50.31;97822.97;1678760;84;27993;-84
2022/06/25 11:52:04;;;;;;;3.00;1.60;;;;;;;30.13;50.23;97816.69;1704219;82;28043;-88
2022/06/25 11:54:32;;;;;;;3.10;1.85;;;;;;;30.32;50.37;97826.17;1705433;82;28087;-84
2022/06/25 11:56:58;;;;;;;4.80;2.10;;;;;;;30.43;50.03;97820.38;1705451;82;28091;-84